createdAt,value
2022-11-16T00:01:31.743Z,4.37
2022-11-16T00:04:01.882Z,4.39
2022-11-16T00:06:36.412Z,4.40
2022-11-16T00:09:28.687Z,4.41
2022-11-16T00:12:03.199Z,4.42
2022-11-16T00:14:34.316Z,4.44
2022-11-16T00:17:04.408Z,4.45
2022-11-16T00:19:33.155Z,4.45
2022-11-16T00:22:05.022Z,4.44
2022-11-16T00:24:34.219Z,4.42
2022-11-16T00:27:06.207Z,4.43
2022-11-16T00:29:42.071Z,4.42
2022-11-16T00:32:12.784Z,4.44
2022-11-16T00:34:41.865Z,4.45
2022-11-16T00:37:13.588Z,4.46
2022-11-16T00:39:54.561Z,4.47
2022-11-16T00:42:23.223Z,4.49
2022-11-16T00:44:52.531Z,4.51
2022-11-16T00:47:22.013Z,4.52
2022-11-16T00:49:55.363Z,4.51
2022-11-16T00:52:25.145Z,4.50
2022-11-16T00:54:54.801Z,4.50
2022-11-16T00:57:26.785Z,4.49
2022-11-16T00:59:56.243Z,4.51
2022-11-16T01:02:25.418Z,4.49
2022-11-16T01:04:54.216Z,4.52
2022-11-16T01:07:26.143Z,4.50
2022-11-16T01:09:54.870Z,4.51
2022-11-16T01:12:23.602Z,4.51
2022-11-16T01:14:52.244Z,4.51
2022-11-16T01:17:21.007Z,4.51
2022-11-16T01:19:50.937Z,4.50
2022-11-16T01:22:20.248Z,4.50
2022-11-16T01:24:51.123Z,4.50
2022-11-16T01:27:19.943Z,4.50
2022-11-16T01:29:49.687Z,4.51
2022-11-16T01:32:18.982Z,4.51
2022-11-16T01:34:50.283Z,4.50
2022-11-16T01:37:30.175Z,4.52
2022-11-16T01:39:59.021Z,4.52
2022-11-16T01:42:33.663Z,4.52
2022-11-16T01:45:22.963Z,4.52
2022-11-16T01:47:55.250Z,4.51
2022-11-16T01:50:27.827Z,4.51
2022-11-16T01:53:02.331Z,4.52
2022-11-16T01:55:40.283Z,4.50
2022-11-16T01:58:22.859Z,4.51
2022-11-16T02:00:57.677Z,4.51
2022-11-16T02:03:31.470Z,4.50
2022-11-16T02:06:24.789Z,4.48
2022-11-16T02:09:34.597Z,4.48
2022-11-16T02:12:22.644Z,4.47
2022-11-16T02:15:04.339Z,4.46
2022-11-16T02:17:47.196Z,4.48
2022-11-16T02:20:51.965Z,4.49
2022-11-16T02:23:45.678Z,4.50
2022-11-16T02:26:29.038Z,4.52
2022-11-16T02:29:21.333Z,4.54
2022-11-16T02:31:59.334Z,4.54
2022-11-16T02:34:33.898Z,4.55
2022-11-16T02:37:07.277Z,4.55
2022-11-16T02:39:38.949Z,4.54
2022-11-16T02:42:13.796Z,4.54
2022-11-16T02:44:56.139Z,4.52
2022-11-16T02:47:35.417Z,4.52
2022-11-16T02:50:15.725Z,4.52
2022-11-16T02:52:45.029Z,4.51
2022-11-16T02:55:15.813Z,4.52
2022-11-16T02:57:54.099Z,4.52
2022-11-16T03:00:33.443Z,4.52
2022-11-16T03:03:19.088Z,4.52
2022-11-16T03:05:56.364Z,4.54
2022-11-16T03:08:30.020Z,4.54
2022-11-16T03:11:22.395Z,4.54
2022-11-16T03:13:55.531Z,4.53
2022-11-16T03:16:34.837Z,4.51
2022-11-16T03:19:11.088Z,4.52
2022-11-16T03:21:47.154Z,4.51
2022-11-16T03:24:17.614Z,4.52
2022-11-16T03:26:54.386Z,4.52
2022-11-16T03:29:30.802Z,4.52
2022-11-16T03:32:12.401Z,4.51
2022-11-16T03:34:44.668Z,4.51
2022-11-16T03:37:14.478Z,4.50
2022-11-16T03:39:44.488Z,4.49
2022-11-16T03:42:14.235Z,4.47
2022-11-16T03:44:48.143Z,4.46
2022-11-16T03:47:19.089Z,4.44
2022-11-16T03:49:48.386Z,4.42
2022-11-16T03:52:18.999Z,4.43
2022-11-16T03:54:50.664Z,4.43
2022-11-16T03:57:19.571Z,4.43
2022-11-16T03:59:53.647Z,4.43
2022-11-16T04:02:22.738Z,4.44
2022-11-16T04:05:24.113Z,4.42
2022-11-16T04:08:11.022Z,4.41
2022-11-16T04:11:02.834Z,4.40
2022-11-16T04:13:56.406Z,4.42
2022-11-16T04:16:47.075Z,4.44
2022-11-16T04:19:34.643Z,4.44
2022-11-16T04:22:24.898Z,4.46
2022-11-16T04:25:03.648Z,4.46
2022-11-16T04:27:54.364Z,4.47
2022-11-16T04:30:46.045Z,4.46
2022-11-16T04:33:36.380Z,4.47
2022-11-16T04:36:25.039Z,4.48
2022-11-16T04:38:53.895Z,4.48
2022-11-16T04:41:43.848Z,4.47
2022-11-16T04:44:12.657Z,4.46
2022-11-16T04:47:12.040Z,4.46
2022-11-16T04:49:43.597Z,4.47
2022-11-16T04:52:15.727Z,4.47
2022-11-16T04:54:47.422Z,4.47
2022-11-16T04:57:18.938Z,4.47
2022-11-16T04:59:47.992Z,4.48
2022-11-16T05:02:20.464Z,4.47
2022-11-16T05:04:52.956Z,4.46
2022-11-16T05:07:22.803Z,4.47
2022-11-16T05:09:53.440Z,4.47
2022-11-16T05:12:27.692Z,4.47
2022-11-16T05:15:02.488Z,4.48
2022-11-16T05:17:33.824Z,4.47
2022-11-16T05:20:21.464Z,4.47
2022-11-16T05:22:58.482Z,4.47
2022-11-16T05:25:35.381Z,4.48
2022-11-16T05:28:08.440Z,4.48
2022-11-16T05:30:40.475Z,4.48
2022-11-16T05:33:09.467Z,4.48
2022-11-16T05:35:41.231Z,4.48
2022-11-16T05:38:10.183Z,4.48
2022-11-16T05:40:56.214Z,4.47
2022-11-16T05:43:25.220Z,4.47
2022-11-16T05:46:03.987Z,4.47
2022-11-16T05:48:39.329Z,4.46
2022-11-16T05:51:08.679Z,4.46
2022-11-16T05:53:37.685Z,4.46
2022-11-16T05:56:08.684Z,4.46
2022-11-16T05:58:40.423Z,4.45
2022-11-16T06:01:09.910Z,4.45
2022-11-16T06:03:39.220Z,4.45
2022-11-16T06:09:14.078Z,4.46
2022-11-16T06:11:43.222Z,4.45
2022-11-16T06:14:12.029Z,4.45
2022-11-16T06:16:50.807Z,4.45
2022-11-16T06:19:22.597Z,4.45
2022-11-16T06:21:53.964Z,4.45
2022-11-16T06:24:23.305Z,4.47
2022-11-16T06:26:53.578Z,4.47
2022-11-16T06:29:24.112Z,4.48
2022-11-16T06:31:53.214Z,4.47
2022-11-16T06:34:26.171Z,4.48
2022-11-16T06:36:57.442Z,4.47
2022-11-16T06:39:34.523Z,4.48
2022-11-16T06:42:05.365Z,4.51
2022-11-16T06:44:36.532Z,4.51
2022-11-16T06:47:05.851Z,4.51
2022-11-16T06:49:35.145Z,4.52
2022-11-16T06:52:07.947Z,4.54
2022-11-16T06:54:36.631Z,4.56
2022-11-16T06:57:05.714Z,4.56
2022-11-16T06:59:37.362Z,4.56
2022-11-16T07:02:10.954Z,4.56
2022-11-16T07:04:40.645Z,4.57
2022-11-16T07:07:10.370Z,4.57
2022-11-16T07:09:39.075Z,4.59
2022-11-16T07:12:09.379Z,4.59
2022-11-16T07:14:39.520Z,4.62
2022-11-16T07:17:13.104Z,4.62
2022-11-16T07:19:42.114Z,4.64
2022-11-16T07:22:12.912Z,4.66
2022-11-16T07:24:41.913Z,4.66
2022-11-16T07:27:20.684Z,4.67
2022-11-16T07:29:54.192Z,4.64
2022-11-16T07:32:43.186Z,4.63
2022-11-16T07:35:17.085Z,4.64
2022-11-16T07:37:45.931Z,4.66
2022-11-16T07:40:16.131Z,4.66
2022-11-16T07:42:49.141Z,4.66
2022-11-16T07:45:40.001Z,4.63
2022-11-16T07:48:11.374Z,4.64
2022-11-16T07:51:02.725Z,4.67
2022-11-16T07:53:36.020Z,4.68
2022-11-16T07:56:05.731Z,4.71
2022-11-16T07:58:36.312Z,4.70
2022-11-16T08:01:08.125Z,4.70
2022-11-16T08:03:37.632Z,4.71
2022-11-16T08:06:12.393Z,4.70
2022-11-16T08:08:41.213Z,4.69
2022-11-16T08:11:14.366Z,4.71
2022-11-16T08:13:43.596Z,4.70
2022-11-16T08:16:15.140Z,4.73
2022-11-16T08:18:48.698Z,4.77
2022-11-16T08:21:23.831Z,4.79
2022-11-16T08:23:58.517Z,4.79
2022-11-16T08:26:34.895Z,4.83
2022-11-16T08:29:07.880Z,4.86
2022-11-16T08:31:38.817Z,4.89
2022-11-16T08:34:16.447Z,4.90
2022-11-16T08:36:48.739Z,4.91
2022-11-16T08:39:20.144Z,4.92
2022-11-16T08:42:10.740Z,4.91
2022-11-16T08:44:39.766Z,4.89
2022-11-16T08:47:12.324Z,4.88
2022-11-16T08:49:50.379Z,4.87
2022-11-16T08:52:25.679Z,4.85
2022-11-16T08:54:56.221Z,4.83
2022-11-16T08:57:25.093Z,4.82
2022-11-16T08:59:58.040Z,4.83
2022-11-16T09:02:26.742Z,4.83
2022-11-16T09:04:55.498Z,4.84
2022-11-16T09:07:24.336Z,4.85
2022-11-16T09:10:10.394Z,4.86
2022-11-16T09:12:39.649Z,4.87
2022-11-16T09:15:16.934Z,4.91
2022-11-16T09:17:45.738Z,4.92
2022-11-16T09:20:14.825Z,4.94
2022-11-16T09:22:44.923Z,4.93
2022-11-16T09:25:14.003Z,4.91
2022-11-16T09:27:43.787Z,4.93
2022-11-16T09:30:14.389Z,4.93
2022-11-16T09:32:43.608Z,4.91
2022-11-16T09:35:17.028Z,4.93
2022-11-16T09:37:46.145Z,4.94
2022-11-16T09:40:18.174Z,4.97
2022-11-16T09:43:01.718Z,4.98
2022-11-16T09:45:41.318Z,4.99
2022-11-16T09:48:17.828Z,5.03
2022-11-16T09:50:58.132Z,5.06
2022-11-16T09:53:35.363Z,5.11
2022-11-16T09:56:07.593Z,5.18
2022-11-16T09:58:49.640Z,5.20
2022-11-16T10:01:37.103Z,5.20
2022-11-16T10:04:11.547Z,5.22
2022-11-16T10:06:54.078Z,5.18
2022-11-16T10:09:23.813Z,5.17
2022-11-16T10:12:10.370Z,5.13
2022-11-16T10:15:15.952Z,5.07
2022-11-16T10:18:17.388Z,5.04
2022-11-16T10:21:11.549Z,5.01
2022-11-16T10:23:58.422Z,5.00
2022-11-16T10:26:47.967Z,4.97
2022-11-16T10:29:29.815Z,4.94
2022-11-16T10:32:17.837Z,4.93
2022-11-16T10:34:52.878Z,4.91
2022-11-16T10:37:24.358Z,4.90
2022-11-16T10:39:54.604Z,4.89
2022-11-16T10:42:29.225Z,4.88
2022-11-16T10:45:12.559Z,4.90
2022-11-16T10:47:49.820Z,4.89
2022-11-16T10:50:34.888Z,4.91
2022-11-16T10:53:04.201Z,4.93
2022-11-16T10:55:34.353Z,4.94
2022-11-16T10:58:17.535Z,4.96
2022-11-16T11:00:51.158Z,4.97
2022-11-16T11:03:31.791Z,4.97
2022-11-16T11:06:00.951Z,5.00
2022-11-16T11:08:31.018Z,5.05
2022-11-16T11:11:24.330Z,5.09
2022-11-16T11:14:18.347Z,5.12
2022-11-16T11:16:54.935Z,5.15
2022-11-16T11:19:29.152Z,5.17
2022-11-16T11:21:57.737Z,5.15
2022-11-16T11:24:44.745Z,5.15
2022-11-16T11:27:21.156Z,5.16
2022-11-16T11:29:54.619Z,5.18
2022-11-16T11:32:30.135Z,5.19
2022-11-16T11:35:00.581Z,5.21
2022-11-16T11:37:33.486Z,5.21
2022-11-16T11:40:32.369Z,5.25
2022-11-16T11:43:21.016Z,5.27
2022-11-16T11:45:54.926Z,5.27
2022-11-16T11:48:41.503Z,5.27
2022-11-16T11:51:21.297Z,5.24
2022-11-16T11:53:56.510Z,5.24
2022-11-16T11:56:26.942Z,5.27
2022-11-16T11:58:59.034Z,5.27
2022-11-16T12:02:01.791Z,5.29
2022-11-16T12:05:01.601Z,5.29
2022-11-16T12:07:47.178Z,5.25
2022-11-16T12:10:24.875Z,5.25
2022-11-16T12:13:15.164Z,5.27
2022-11-16T12:15:58.846Z,5.27
2022-11-16T12:18:45.397Z,5.26
2022-11-16T12:21:24.369Z,5.26
2022-11-16T12:24:11.091Z,5.26
2022-11-16T12:26:58.163Z,5.28
2022-11-16T12:29:33.814Z,5.26
2022-11-16T12:32:30.896Z,5.24
2022-11-16T12:35:16.801Z,5.23
2022-11-16T12:37:50.296Z,5.21
2022-11-16T12:40:35.701Z,5.18
2022-11-16T12:43:16.447Z,5.13
2022-11-16T12:46:06.341Z,5.08
2022-11-16T12:49:10.860Z,5.03
2022-11-16T12:51:56.549Z,4.95
2022-11-16T12:55:04.304Z,4.84
2022-11-16T12:57:42.787Z,4.67
2022-11-16T13:00:14.200Z,4.58
2022-11-16T13:03:12.826Z,4.52
2022-11-16T13:05:50.610Z,4.41
2022-11-16T13:08:35.022Z,4.29
2022-11-16T13:11:13.779Z,4.22
2022-11-16T13:13:49.649Z,4.13
2022-11-16T13:16:38.628Z,4.07
2022-11-16T13:19:12.881Z,3.98
2022-11-16T13:21:52.728Z,3.86
2022-11-16T13:24:32.906Z,3.81
2022-11-16T13:27:23.008Z,3.76
2022-11-16T13:30:00.613Z,3.71
2022-11-16T13:32:43.534Z,3.67
2022-11-16T13:35:16.776Z,3.61
2022-11-16T13:37:47.749Z,3.58
2022-11-16T13:40:26.584Z,3.52
2022-11-16T13:43:16.734Z,3.46
2022-11-16T13:45:56.786Z,3.39
2022-11-16T13:48:31.915Z,3.33
2022-11-16T13:51:04.005Z,3.30
2022-11-16T13:54:43.035Z,3.25
2022-11-16T13:56:46.526Z,3.19
2022-11-16T13:59:23.657Z,3.12
2022-11-16T14:02:01.108Z,3.07
2022-11-16T14:04:42.264Z,3.05
2022-11-16T14:07:32.829Z,3.02
2022-11-16T14:10:05.626Z,2.98
2022-11-16T14:12:58.328Z,2.95
2022-11-16T14:15:29.974Z,2.90
2022-11-16T14:18:24.460Z,2.84
2022-11-16T14:21:03.684Z,2.79
2022-11-16T14:23:48.468Z,2.74
2022-11-16T14:26:25.030Z,2.71
2022-11-16T14:29:28.036Z,2.69
2022-11-16T14:32:03.464Z,2.63
2022-11-16T14:34:39.927Z,2.60
2022-11-16T14:37:13.582Z,2.57
2022-11-16T14:39:44.313Z,2.52
2022-11-16T14:42:24.017Z,2.48
2022-11-16T14:45:00.430Z,2.45
2022-11-16T14:47:34.122Z,2.41
2022-11-16T14:50:05.673Z,2.36
2022-11-16T14:52:39.003Z,2.31
2022-11-16T14:55:16.492Z,2.29
2022-11-16T14:57:45.394Z,2.25
2022-11-16T15:00:21.818Z,2.22
2022-11-16T15:03:02.388Z,2.22
2022-11-16T15:05:38.577Z,2.22
2022-11-16T15:08:18.812Z,2.21
2022-11-16T15:10:52.364Z,2.19
2022-11-16T15:13:24.223Z,2.18
2022-11-16T15:16:14.594Z,2.15
2022-11-16T15:19:05.233Z,2.13
2022-11-16T15:21:34.806Z,2.11
2022-11-16T15:27:09.595Z,2.07
2022-11-16T15:29:49.252Z,2.06
2022-11-16T15:32:21.918Z,2.05
2022-11-16T15:34:54.329Z,2.03
2022-11-16T15:37:32.219Z,2.03
2022-11-16T15:40:04.828Z,2.04
2022-11-16T15:42:34.136Z,2.05
2022-11-16T15:45:15.489Z,2.03
2022-11-16T15:47:53.543Z,2.02
2022-11-16T15:50:24.644Z,2.03
2022-11-16T15:52:55.580Z,2.03
2022-11-16T15:55:32.684Z,2.03
2022-11-16T15:58:05.624Z,2.05
2022-11-16T16:00:39.215Z,2.05
2022-11-16T16:03:20.239Z,2.08
2022-11-16T16:05:49.640Z,2.09
2022-11-16T16:08:36.612Z,2.10
2022-11-16T16:11:10.132Z,2.11
2022-11-16T16:13:41.490Z,2.14
2022-11-16T16:16:37.306Z,2.15
2022-11-16T16:19:22.562Z,2.14
2022-11-16T16:21:52.897Z,2.14
2022-11-16T16:24:43.674Z,2.14
2022-11-16T16:27:17.631Z,2.14
2022-11-16T16:29:47.906Z,2.15
2022-11-16T16:32:26.281Z,2.16
2022-11-16T16:35:02.096Z,2.17
2022-11-16T16:37:33.092Z,2.19
2022-11-16T16:40:03.861Z,2.19
2022-11-16T16:42:33.032Z,2.20
2022-11-16T16:45:02.162Z,2.21
2022-11-16T16:47:32.653Z,2.20
2022-11-16T16:50:03.528Z,2.20
2022-11-16T16:52:33.829Z,2.20
2022-11-16T16:55:02.630Z,2.20
2022-11-16T16:57:31.343Z,2.22
2022-11-16T17:00:02.972Z,2.23
2022-11-16T17:02:31.818Z,2.22
2022-11-16T17:05:00.795Z,2.23
2022-11-16T17:07:30.121Z,2.24
2022-11-16T17:10:00.363Z,2.25
2022-11-16T17:12:30.562Z,2.26
2022-11-16T17:15:00.472Z,2.26
2022-11-16T17:17:29.140Z,2.28
2022-11-16T17:20:00.372Z,2.28
2022-11-16T17:22:29.138Z,2.29
2022-11-16T17:25:01.367Z,2.30
2022-11-16T17:27:31.733Z,2.31
2022-11-16T17:30:00.587Z,2.33
2022-11-16T17:32:30.587Z,2.34
2022-11-16T17:35:00.638Z,2.36
2022-11-16T17:37:29.655Z,2.37
2022-11-16T17:39:59.615Z,2.38
2022-11-16T17:42:29.741Z,2.37
2022-11-16T17:45:00.958Z,2.36
2022-11-16T17:47:32.455Z,2.36
2022-11-16T17:50:02.981Z,2.36
2022-11-16T17:52:33.444Z,2.37
2022-11-16T17:55:02.172Z,2.37
2022-11-16T17:57:30.914Z,2.37
2022-11-16T18:00:02.617Z,2.37
2022-11-16T18:02:33.188Z,2.39
2022-11-16T18:05:02.024Z,2.37
2022-11-16T18:07:33.674Z,2.38
2022-11-16T18:10:05.216Z,2.36
2022-11-16T18:12:38.040Z,2.35
2022-11-16T18:15:28.021Z,2.32
2022-11-16T18:18:02.187Z,2.30
2022-11-16T18:20:45.643Z,2.30
2022-11-16T18:23:16.673Z,2.31
2022-11-16T18:25:45.866Z,2.31
2022-11-16T18:28:18.119Z,2.30
2022-11-16T18:30:48.494Z,2.30
2022-11-16T18:33:18.216Z,2.30
2022-11-16T18:35:46.813Z,2.30
2022-11-16T18:38:18.211Z,2.33
2022-11-16T18:41:04.350Z,2.33
2022-11-16T18:43:35.890Z,2.35
2022-11-16T18:46:06.444Z,2.35
2022-11-16T18:48:44.660Z,2.33
2022-11-16T18:51:16.959Z,2.33
2022-11-16T18:53:45.773Z,2.33
2022-11-16T18:56:16.911Z,2.33
2022-11-16T18:58:56.076Z,2.34
2022-11-16T19:01:46.942Z,2.33
2022-11-16T19:04:16.081Z,2.31
2022-11-16T19:06:46.987Z,2.31
2022-11-16T19:09:18.487Z,2.31
2022-11-16T19:11:47.338Z,2.31
2022-11-16T19:14:16.496Z,2.30
2022-11-16T19:16:54.160Z,2.31
2022-11-16T19:19:30.071Z,2.33
2022-11-16T19:22:02.341Z,2.33
2022-11-16T19:24:37.064Z,2.35
2022-11-16T19:27:06.002Z,2.33
2022-11-16T19:29:40.499Z,2.35
2022-11-16T19:32:11.055Z,2.33
2022-11-16T19:34:39.834Z,2.33
2022-11-16T19:37:11.848Z,2.31
2022-11-16T19:39:44.572Z,2.34
2022-11-16T19:42:16.840Z,2.33
2022-11-16T19:44:47.297Z,2.34
2022-11-16T19:47:18.415Z,2.33
2022-11-16T19:49:51.886Z,2.33
2022-11-16T19:52:23.862Z,2.33
2022-11-16T19:54:52.856Z,2.31
2022-11-16T19:57:21.934Z,2.31
2022-11-16T19:59:50.833Z,2.30
2022-11-16T20:02:19.995Z,2.29
2022-11-16T20:04:54.056Z,2.29
2022-11-16T20:07:21.991Z,2.27
2022-11-16T20:09:53.563Z,2.28
2022-11-16T20:12:23.032Z,2.28
2022-11-16T20:14:54.672Z,2.29
2022-11-16T20:20:12.906Z,2.29
2022-11-16T20:22:43.472Z,2.28
2022-11-16T20:25:12.341Z,2.29
2022-11-16T20:27:44.179Z,2.29
2022-11-16T20:30:17.167Z,2.29
2022-11-16T20:32:45.911Z,2.30
2022-11-16T20:35:20.198Z,2.31
2022-11-16T20:37:48.928Z,2.29
2022-11-16T20:40:18.088Z,2.29
2022-11-16T20:42:48.295Z,2.31
2022-11-16T20:45:17.476Z,2.31
2022-11-16T20:47:47.251Z,2.34
2022-11-16T20:50:19.192Z,2.33
2022-11-16T20:52:52.676Z,2.33
2022-11-16T20:55:21.683Z,2.35
2022-11-16T20:57:53.917Z,2.35
2022-11-16T21:00:26.071Z,2.36
2022-11-16T21:02:55.251Z,2.37
2022-11-16T21:05:25.827Z,2.37
2022-11-16T21:07:54.438Z,2.37
2022-11-16T21:10:23.334Z,2.37
2022-11-16T21:13:11.760Z,2.39
2022-11-16T21:15:54.856Z,2.38
2022-11-16T21:18:29.324Z,2.38
2022-11-16T21:21:04.413Z,2.39
2022-11-16T21:23:35.872Z,2.40
2022-11-16T21:26:06.807Z,2.41
2022-11-16T21:28:39.553Z,2.42
2022-11-16T21:31:15.653Z,2.41
2022-11-16T21:33:47.309Z,2.43
2022-11-16T21:36:18.560Z,2.43
2022-11-16T21:38:48.814Z,2.44
2022-11-16T21:41:19.794Z,2.44
2022-11-16T21:43:52.266Z,2.45
2022-11-16T21:46:32.074Z,2.44
2022-11-16T21:49:07.333Z,2.45
2022-11-16T21:51:36.253Z,2.45
2022-11-16T21:54:05.483Z,2.45
2022-11-16T21:56:36.813Z,2.45
2022-11-16T21:59:08.294Z,2.44
2022-11-16T22:01:52.847Z,2.43
2022-11-16T22:04:40.721Z,2.43
2022-11-16T22:07:36.168Z,2.42
2022-11-16T22:10:10.641Z,2.41
2022-11-16T22:12:48.748Z,2.39
2022-11-16T22:15:22.161Z,2.39
2022-11-16T22:17:51.924Z,2.39
2022-11-16T22:20:20.814Z,2.40
2022-11-16T22:22:52.977Z,2.41
2022-11-16T22:25:22.535Z,2.42
2022-11-16T22:28:20.151Z,2.43
2022-11-16T22:30:40.667Z,2.41
2022-11-16T22:33:09.647Z,2.42
2022-11-16T22:35:38.378Z,2.42
2022-11-16T22:38:07.115Z,2.40
2022-11-16T22:43:22.986Z,2.41
2022-11-16T22:45:51.968Z,2.40
2022-11-16T22:48:21.242Z,2.41
2022-11-16T22:50:50.841Z,2.40
2022-11-16T22:53:21.309Z,2.39
2022-11-16T22:55:53.327Z,2.38
2022-11-16T22:58:21.955Z,2.38
2022-11-16T23:00:52.493Z,2.39
2022-11-16T23:03:24.148Z,2.40
2022-11-16T23:05:52.937Z,2.40
2022-11-16T23:08:24.297Z,2.39
2022-11-16T23:11:22.041Z,2.38
2022-11-16T23:14:12.190Z,2.38
2022-11-16T23:16:42.014Z,2.39
2022-11-16T23:19:27.928Z,2.38
2022-11-16T23:22:16.651Z,2.38
2022-11-16T23:25:05.984Z,2.37
2022-11-16T23:27:40.797Z,2.34
2022-11-16T23:30:13.771Z,2.34
2022-11-16T23:32:44.990Z,2.34
2022-11-16T23:35:15.377Z,2.35
2022-11-16T23:38:00.691Z,2.33
2022-11-16T23:40:31.018Z,2.31
2022-11-16T23:43:21.150Z,2.29
2022-11-16T23:45:50.201Z,2.29
2022-11-16T23:48:20.733Z,2.29
2022-11-16T23:50:49.408Z,2.29
2022-11-16T23:53:18.186Z,2.28
2022-11-16T23:55:47.131Z,2.27
2022-11-16T23:58:17.637Z,2.28
